sensor_id;sensor_type;location;lat;lon;timestamp;P1;durP1;ratioP1;P2;durP2;ratioP2
12962;SDS011;6546;49.882;8.666;2023-04-06T00:00:33;4.60;;;3.43;;
12962;SDS011;6546;49.882;8.666;2023-04-06T00:03:01;5.57;;;3.90;;
12962;SDS011;6546;49.882;8.666;2023-04-06T00:05:27;5.30;;;3.90;;
12962;SDS011;6546;49.882;8.666;2023-04-06T00:07:55;4.70;;;3.60;;
12962;SDS011;6546;49.882;8.666;2023-04-06T00:10:23;5.20;;;4.20;;
12962;SDS011;6546;49.882;8.666;2023-04-06T00:12:49;7.43;;;4.70;;
12962;SDS011;6546;49.882;8.666;2023-04-06T00:15:19;7.13;;;4.30;;
12962;SDS011;6546;49.882;8.666;2023-04-06T00:17:47;6.63;;;4.40;;
12962;SDS011;6546;49.882;8.666;2023-04-06T00:20:15;6.07;;;4.00;;
12962;SDS011;6546;49.882;8.666;2023-04-06T00:22:42;8.43;;;4.57;;
12962;SDS011;6546;49.882;8.666;2023-04-06T00:25:09;10.30;;;5.13;;
12962;SDS011;6546;49.882;8.666;2023-04-06T00:27:36;8.53;;;5.30;;
12962;SDS011;6546;49.882;8.666;2023-04-06T00:30:03;10.27;;;4.83;;
12962;SDS011;6546;49.882;8.666;2023-04-06T00:32:30;9.47;;;5.17;;
12962;SDS011;6546;49.882;8.666;2023-04-06T00:35:01;10.50;;;5.80;;
12962;SDS011;6546;49.882;8.666;2023-04-06T00:37:30;9.97;;;5.00;;
12962;SDS011;6546;49.882;8.666;2023-04-06T00:39:56;9.27;;;5.27;;
12962;SDS011;6546;49.882;8.666;2023-04-06T00:42:23;7.03;;;4.50;;
12962;SDS011;6546;49.882;8.666;2023-04-06T00:44:51;8.40;;;4.80;;
12962;SDS011;6546;49.882;8.666;2023-04-06T00:47:19;6.07;;;4.40;;
12962;SDS011;6546;49.882;8.666;2023-04-06T00:49:45;5.53;;;4.27;;
12962;SDS011;6546;49.882;8.666;2023-04-06T00:52:12;4.80;;;3.90;;
12962;SDS011;6546;49.882;8.666;2023-04-06T00:54:40;5.03;;;3.90;;
12962;SDS011;6546;49.882;8.666;2023-04-06T00:57:07;6.30;;;4.00;;
12962;SDS011;6546;49.882;8.666;2023-04-06T00:59:34;5.70;;;3.37;;
12962;SDS011;6546;49.882;8.666;2023-04-06T01:02:00;5.40;;;3.73;;
12962;SDS011;6546;49.882;8.666;2023-04-06T01:04:27;5.50;;;4.50;;
12962;SDS011;6546;49.882;8.666;2023-04-06T01:06:54;5.63;;;4.10;;
12962;SDS011;6546;49.882;8.666;2023-04-06T01:09:20;7.20;;;4.47;;
12962;SDS011;6546;49.882;8.666;2023-04-06T01:11:49;5.73;;;4.00;;
12962;SDS011;6546;49.882;8.666;2023-04-06T01:14:16;5.43;;;3.90;;
12962;SDS011;6546;49.882;8.666;2023-04-06T01:16:47;6.13;;;3.83;;
12962;SDS011;6546;49.882;8.666;2023-04-06T01:19:18;3.93;;;3.53;;
12962;SDS011;6546;49.882;8.666;2023-04-06T01:21:46;4.03;;;3.53;;
12962;SDS011;6546;49.882;8.666;2023-04-06T01:24:15;4.53;;;3.60;;
12962;SDS011;6546;49.882;8.666;2023-04-06T01:26:42;4.23;;;3.53;;
12962;SDS011;6546;49.882;8.666;2023-04-06T01:29:09;5.43;;;3.67;;
12962;SDS011;6546;49.882;8.666;2023-04-06T01:31:36;4.17;;;3.53;;
12962;SDS011;6546;49.882;8.666;2023-04-06T01:34:02;3.83;;;3.47;;
12962;SDS011;6546;49.882;8.666;2023-04-06T01:36:32;5.13;;;3.87;;
12962;SDS011;6546;49.882;8.666;2023-04-06T01:38:59;4.13;;;3.70;;
12962;SDS011;6546;49.882;8.666;2023-04-06T01:41:27;5.00;;;3.80;;
12962;SDS011;6546;49.882;8.666;2023-04-06T01:43:54;4.43;;;3.43;;
12962;SDS011;6546;49.882;8.666;2023-04-06T01:46:21;5.17;;;3.43;;
12962;SDS011;6546;49.882;8.666;2023-04-06T01:48:47;5.57;;;4.07;;
12962;SDS011;6546;49.882;8.666;2023-04-06T01:51:14;4.50;;;4.10;;
12962;SDS011;6546;49.882;8.666;2023-04-06T01:53:41;5.30;;;3.90;;
12962;SDS011;6546;49.882;8.666;2023-04-06T01:56:09;4.43;;;3.87;;
12962;SDS011;6546;49.882;8.666;2023-04-06T01:58:37;4.40;;;4.00;;
12962;SDS011;6546;49.882;8.666;2023-04-06T02:01:03;4.30;;;3.83;;
12962;SDS011;6546;49.882;8.666;2023-04-06T02:03:30;6.73;;;4.13;;
12962;SDS011;6546;49.882;8.666;2023-04-06T02:05:57;4.90;;;4.40;;
12962;SDS011;6546;49.882;8.666;2023-04-06T02:08:23;6.07;;;4.43;;
12962;SDS011;6546;49.882;8.666;2023-04-06T02:10:50;5.43;;;4.27;;
12962;SDS011;6546;49.882;8.666;2023-04-06T02:13:17;5.37;;;4.07;;
12962;SDS011;6546;49.882;8.666;2023-04-06T02:15:46;4.33;;;3.60;;
12962;SDS011;6546;49.882;8.666;2023-04-06T02:18:12;5.73;;;4.00;;
12962;SDS011;6546;49.882;8.666;2023-04-06T02:20:39;6.10;;;4.77;;
12962;SDS011;6546;49.882;8.666;2023-04-06T02:23:06;7.53;;;5.73;;
12962;SDS011;6546;49.882;8.666;2023-04-06T02:25:33;8.17;;;6.10;;
12962;SDS011;6546;49.882;8.666;2023-04-06T02:28:00;8.17;;;5.87;;
12962;SDS011;6546;49.882;8.666;2023-04-06T02:30:26;7.70;;;5.70;;
12962;SDS011;6546;49.882;8.666;2023-04-06T02:32:55;20.33;;;12.70;;
12962;SDS011;6546;49.882;8.666;2023-04-06T02:35:22;9.93;;;5.40;;
12962;SDS011;6546;49.882;8.666;2023-04-06T02:37:48;6.70;;;5.47;;
12962;SDS011;6546;49.882;8.666;2023-04-06T02:40:15;4.90;;;4.37;;
12962;SDS011;6546;49.882;8.666;2023-04-06T02:42:42;6.57;;;5.20;;
12962;SDS011;6546;49.882;8.666;2023-04-06T02:45:08;5.27;;;4.77;;
12962;SDS011;6546;49.882;8.666;2023-04-06T02:47:35;7.43;;;4.90;;
12962;SDS011;6546;49.882;8.666;2023-04-06T02:50:04;5.97;;;4.57;;
12962;SDS011;6546;49.882;8.666;2023-04-06T02:52:31;5.53;;;4.57;;
12962;SDS011;6546;49.882;8.666;2023-04-06T02:54:58;5.20;;;4.40;;
12962;SDS011;6546;49.882;8.666;2023-04-06T02:57:25;8.23;;;4.70;;
12962;SDS011;6546;49.882;8.666;2023-04-06T02:59:51;5.73;;;4.70;;
12962;SDS011;6546;49.882;8.666;2023-04-06T03:02:18;7.47;;;4.90;;
12962;SDS011;6546;49.882;8.666;2023-04-06T03:04:45;7.10;;;5.27;;
12962;SDS011;6546;49.882;8.666;2023-04-06T03:07:13;5.13;;;4.70;;
12962;SDS011;6546;49.882;8.666;2023-04-06T03:09:39;6.47;;;4.93;;
12962;SDS011;6546;49.882;8.666;2023-04-06T03:12:06;8.10;;;5.57;;
12962;SDS011;6546;49.882;8.666;2023-04-06T03:14:36;7.77;;;5.73;;
12962;SDS011;6546;49.882;8.666;2023-04-06T03:17:02;7.60;;;6.40;;
12962;SDS011;6546;49.882;8.666;2023-04-06T03:19:29;8.27;;;6.20;;
12962;SDS011;6546;49.882;8.666;2023-04-06T03:21:56;8.57;;;6.23;;
12962;SDS011;6546;49.882;8.666;2023-04-06T03:24:24;8.40;;;6.40;;
12962;SDS011;6546;49.882;8.666;2023-04-06T03:26:50;10.30;;;6.47;;
12962;SDS011;6546;49.882;8.666;2023-04-06T03:29:17;10.73;;;6.03;;
12962;SDS011;6546;49.882;8.666;2023-04-06T03:31:43;10.70;;;6.20;;
12962;SDS011;6546;49.882;8.666;2023-04-06T03:34:10;9.17;;;6.00;;
12962;SDS011;6546;49.882;8.666;2023-04-06T03:36:37;10.57;;;6.03;;
12962;SDS011;6546;49.882;8.666;2023-04-06T03:39:03;10.53;;;6.40;;
12962;SDS011;6546;49.882;8.666;2023-04-06T03:41:32;11.43;;;6.63;;
12962;SDS011;6546;49.882;8.666;2023-04-06T03:43:59;13.50;;;7.77;;
12962;SDS011;6546;49.882;8.666;2023-04-06T03:46:26;16.87;;;8.73;;
12962;SDS011;6546;49.882;8.666;2023-04-06T03:48:52;18.53;;;9.80;;
12962;SDS011;6546;49.882;8.666;2023-04-06T03:51:19;19.37;;;10.30;;
12962;SDS011;6546;49.882;8.666;2023-04-06T03:53:45;20.80;;;10.83;;
12962;SDS011;6546;49.882;8.666;2023-04-06T03:56:12;26.47;;;12.10;;
12962;SDS011;6546;49.882;8.666;2023-04-06T03:58:40;27.70;;;13.80;;
12962;SDS011;6546;49.882;8.666;2023-04-06T04:01:07;42.33;;;19.77;;
12962;SDS011;6546;49.882;8.666;2023-04-06T04:03:33;58.17;;;27.17;;
12962;SDS011;6546;49.882;8.666;2023-04-06T04:06:00;73.77;;;30.67;;
12962;SDS011;6546;49.882;8.666;2023-04-06T04:08:26;83.17;;;35.20;;
12962;SDS011;6546;49.882;8.666;2023-04-06T04:10:53;90.63;;;39.13;;
12962;SDS011;6546;49.882;8.666;2023-04-06T04:13:20;102.97;;;43.07;;
12962;SDS011;6546;49.882;8.666;2023-04-06T04:15:48;102.57;;;45.37;;
12962;SDS011;6546;49.882;8.666;2023-04-06T04:18:14;105.63;;;46.13;;
12962;SDS011;6546;49.882;8.666;2023-04-06T04:20:41;114.60;;;48.27;;
12962;SDS011;6546;49.882;8.666;2023-04-06T04:23:08;122.43;;;51.13;;
12962;SDS011;6546;49.882;8.666;2023-04-06T04:25:34;109.20;;;47.33;;
12962;SDS011;6546;49.882;8.666;2023-04-06T04:28:01;106.53;;;45.87;;
12962;SDS011;6546;49.882;8.666;2023-04-06T04:30:28;97.80;;;43.33;;
12962;SDS011;6546;49.882;8.666;2023-04-06T04:32:56;88.03;;;39.13;;
12962;SDS011;6546;49.882;8.666;2023-04-06T04:35:23;83.60;;;36.90;;
12962;SDS011;6546;49.882;8.666;2023-04-06T04:37:49;81.10;;;35.40;;
12962;SDS011;6546;49.882;8.666;2023-04-06T04:40:16;73.87;;;33.47;;
12962;SDS011;6546;49.882;8.666;2023-04-06T04:42:43;69.03;;;32.73;;
12962;SDS011;6546;49.882;8.666;2023-04-06T04:45:10;65.60;;;30.33;;
12962;SDS011;6546;49.882;8.666;2023-04-06T04:47:36;59.17;;;28.03;;
12962;SDS011;6546;49.882;8.666;2023-04-06T04:50:05;57.07;;;26.67;;
12962;SDS011;6546;49.882;8.666;2023-04-06T04:52:32;57.83;;;25.37;;
12962;SDS011;6546;49.882;8.666;2023-04-06T04:54:59;43.10;;;20.93;;
12962;SDS011;6546;49.882;8.666;2023-04-06T04:57:25;33.80;;;17.00;;
12962;SDS011;6546;49.882;8.666;2023-04-06T04:59:52;30.83;;;16.17;;
12962;SDS011;6546;49.882;8.666;2023-04-06T05:02:19;26.23;;;13.67;;
12962;SDS011;6546;49.882;8.666;2023-04-06T05:04:45;24.57;;;13.27;;
12962;SDS011;6546;49.882;8.666;2023-04-06T05:07:13;23.10;;;11.87;;
12962;SDS011;6546;49.882;8.666;2023-04-06T05:09:43;23.70;;;12.33;;
12962;SDS011;6546;49.882;8.666;2023-04-06T05:12:10;22.63;;;12.43;;
12962;SDS011;6546;49.882;8.666;2023-04-06T05:14:36;23.47;;;13.00;;
12962;SDS011;6546;49.882;8.666;2023-04-06T05:17:03;26.50;;;14.53;;
12962;SDS011;6546;49.882;8.666;2023-04-06T05:19:30;25.23;;;14.00;;
12962;SDS011;6546;49.882;8.666;2023-04-06T05:21:56;25.53;;;14.87;;
12962;SDS011;6546;49.882;8.666;2023-04-06T05:24:25;25.20;;;14.63;;
12962;SDS011;6546;49.882;8.666;2023-04-06T05:26:51;23.23;;;14.63;;
12962;SDS011;6546;49.882;8.666;2023-04-06T05:29:18;24.77;;;14.30;;
12962;SDS011;6546;49.882;8.666;2023-04-06T05:31:46;23.63;;;14.10;;
12962;SDS011;6546;49.882;8.666;2023-04-06T05:34:12;22.83;;;12.97;;
12962;SDS011;6546;49.882;8.666;2023-04-06T05:36:39;15.17;;;9.40;;
12962;SDS011;6546;49.882;8.666;2023-04-06T05:39:06;19.77;;;10.97;;
12962;SDS011;6546;49.882;8.666;2023-04-06T05:41:34;18.17;;;10.73;;
12962;SDS011;6546;49.882;8.666;2023-04-06T05:44:01;17.27;;;9.40;;
12962;SDS011;6546;49.882;8.666;2023-04-06T05:46:27;15.17;;;8.97;;
12962;SDS011;6546;49.882;8.666;2023-04-06T05:48:54;12.97;;;7.80;;
12962;SDS011;6546;49.882;8.666;2023-04-06T05:51:21;13.37;;;7.90;;
12962;SDS011;6546;49.882;8.666;2023-04-06T05:53:48;11.57;;;6.57;;
12962;SDS011;6546;49.882;8.666;2023-04-06T05:56:14;9.63;;;6.97;;
12962;SDS011;6546;49.882;8.666;2023-04-06T05:58:42;10.33;;;6.73;;
12962;SDS011;6546;49.882;8.666;2023-04-06T06:01:09;9.73;;;6.27;;
12962;SDS011;6546;49.882;8.666;2023-04-06T06:03:36;8.73;;;6.73;;
12962;SDS011;6546;49.882;8.666;2023-04-06T06:06:03;6.70;;;6.00;;
12962;SDS011;6546;49.882;8.666;2023-04-06T06:08:30;10.97;;;5.87;;
12962;SDS011;6546;49.882;8.666;2023-04-06T06:10:57;8.10;;;5.77;;
12962;SDS011;6546;49.882;8.666;2023-04-06T06:13:23;7.27;;;5.33;;
12962;SDS011;6546;49.882;8.666;2023-04-06T06:15:51;15.97;;;6.00;;
12962;SDS011;6546;49.882;8.666;2023-04-06T06:18:18;6.90;;;6.00;;
12962;SDS011;6546;49.882;8.666;2023-04-06T06:20:45;11.30;;;7.10;;
12962;SDS011;6546;49.882;8.666;2023-04-06T06:23:12;11.10;;;6.90;;
12962;SDS011;6546;49.882;8.666;2023-04-06T06:25:38;11.53;;;7.10;;
12962;SDS011;6546;49.882;8.666;2023-04-06T06:28:05;8.80;;;6.80;;
12962;SDS011;6546;49.882;8.666;2023-04-06T06:30:32;8.40;;;6.80;;
12962;SDS011;6546;49.882;8.666;2023-04-06T06:33:00;10.63;;;6.33;;
12962;SDS011;6546;49.882;8.666;2023-04-06T06:35:27;8.97;;;6.90;;
12962;SDS011;6546;49.882;8.666;2023-04-06T06:37:53;10.23;;;7.50;;
12962;SDS011;6546;49.882;8.666;2023-04-06T06:40:20;9.47;;;7.30;;
12962;SDS011;6546;49.882;8.666;2023-04-06T06:42:49;9.57;;;7.43;;
12962;SDS011;6546;49.882;8.666;2023-04-06T06:45:16;9.97;;;7.03;;
12962;SDS011;6546;49.882;8.666;2023-04-06T06:47:42;8.13;;;7.33;;
12962;SDS011;6546;49.882;8.666;2023-04-06T06:50:10;10.03;;;7.43;;
12962;SDS011;6546;49.882;8.666;2023-04-06T06:52:37;7.93;;;7.13;;
12962;SDS011;6546;49.882;8.666;2023-04-06T06:55:05;10.57;;;7.63;;
12962;SDS011;6546;49.882;8.666;2023-04-06T06:57:32;9.90;;;7.80;;
12962;SDS011;6546;49.882;8.666;2023-04-06T06:59:58;8.57;;;7.67;;
12962;SDS011;6546;49.882;8.666;2023-04-06T07:02:25;9.43;;;7.93;;
12962;SDS011;6546;49.882;8.666;2023-04-06T07:04:52;13.00;;;7.63;;
12962;SDS011;6546;49.882;8.666;2023-04-06T07:07:20;9.53;;;7.97;;
12962;SDS011;6546;49.882;8.666;2023-04-06T07:09:47;10.13;;;7.70;;
12962;SDS011;6546;49.882;8.666;2023-04-06T07:12:13;10.47;;;7.63;;
12962;SDS011;6546;49.882;8.666;2023-04-06T07:14:41;13.47;;;8.97;;
12962;SDS011;6546;49.882;8.666;2023-04-06T07:17:08;12.67;;;8.73;;
12962;SDS011;6546;49.882;8.666;2023-04-06T07:19:35;10.57;;;8.80;;
12962;SDS011;6546;49.882;8.666;2023-04-06T07:22:01;13.57;;;8.77;;
12962;SDS011;6546;49.882;8.666;2023-04-06T07:24:30;13.53;;;9.10;;
12962;SDS011;6546;49.882;8.666;2023-04-06T07:26:57;10.20;;;7.97;;
12962;SDS011;6546;49.882;8.666;2023-04-06T07:29:25;9.77;;;8.50;;
12962;SDS011;6546;49.882;8.666;2023-04-06T07:31:52;10.60;;;8.40;;
12962;SDS011;6546;49.882;8.666;2023-04-06T07:34:19;9.90;;;7.87;;
12962;SDS011;6546;49.882;8.666;2023-04-06T07:36:45;10.53;;;8.27;;
12962;SDS011;6546;49.882;8.666;2023-04-06T07:39:12;12.73;;;8.57;;
12962;SDS011;6546;49.882;8.666;2023-04-06T07:41:40;8.80;;;7.90;;
12962;SDS011;6546;49.882;8.666;2023-04-06T07:44:07;9.83;;;8.40;;
12962;SDS011;6546;49.882;8.666;2023-04-06T07:46:34;10.33;;;8.43;;
12962;SDS011;6546;49.882;8.666;2023-04-06T07:49:01;9.90;;;8.90;;
12962;SDS011;6546;49.882;8.666;2023-04-06T07:51:28;8.30;;;7.50;;
12962;SDS011;6546;49.882;8.666;2023-04-06T07:53:54;9.80;;;7.97;;
12962;SDS011;6546;49.882;8.666;2023-04-06T07:56:21;10.87;;;9.00;;
12962;SDS011;6546;49.882;8.666;2023-04-06T07:58:49;11.37;;;8.13;;
12962;SDS011;6546;49.882;8.666;2023-04-06T08:01:15;9.93;;;8.83;;
12962;SDS011;6546;49.882;8.666;2023-04-06T08:03:42;9.53;;;8.50;;
12962;SDS011;6546;49.882;8.666;2023-04-06T08:06:09;11.03;;;8.13;;
12962;SDS011;6546;49.882;8.666;2023-04-06T08:08:35;9.77;;;8.77;;
12962;SDS011;6546;49.882;8.666;2023-04-06T08:11:02;11.60;;;8.97;;
12962;SDS011;6546;49.882;8.666;2023-04-06T08:13:29;10.30;;;9.20;;
12962;SDS011;6546;49.882;8.666;2023-04-06T08:15:58;10.23;;;9.13;;
12962;SDS011;6546;49.882;8.666;2023-04-06T08:18:25;11.73;;;9.00;;
12962;SDS011;6546;49.882;8.666;2023-04-06T08:20:51;10.10;;;8.97;;
12962;SDS011;6546;49.882;8.666;2023-04-06T08:23:18;10.50;;;9.07;;
12962;SDS011;6546;49.882;8.666;2023-04-06T08:25:45;11.87;;;8.83;;
12962;SDS011;6546;49.882;8.666;2023-04-06T08:28:11;10.07;;;8.43;;
12962;SDS011;6546;49.882;8.666;2023-04-06T08:30:39;11.73;;;8.73;;
12962;SDS011;6546;49.882;8.666;2023-04-06T08:33:07;10.50;;;8.73;;
12962;SDS011;6546;49.882;8.666;2023-04-06T08:35:34;11.70;;;8.73;;
12962;SDS011;6546;49.882;8.666;2023-04-06T08:38:01;13.13;;;9.00;;
12962;SDS011;6546;49.882;8.666;2023-04-06T08:40:35;12.70;;;8.83;;
12962;SDS011;6546;49.882;8.666;2023-04-06T08:43:03;10.73;;;8.70;;
12962;SDS011;6546;49.882;8.666;2023-04-06T08:45:35;10.77;;;8.53;;
12962;SDS011;6546;49.882;8.666;2023-04-06T08:48:02;11.43;;;8.70;;
12962;SDS011;6546;49.882;8.666;2023-04-06T08:50:31;9.60;;;8.20;;
12962;SDS011;6546;49.882;8.666;2023-04-06T08:52:59;10.23;;;7.90;;
12962;SDS011;6546;49.882;8.666;2023-04-06T08:55:27;10.50;;;8.00;;
12962;SDS011;6546;49.882;8.666;2023-04-06T08:57:53;9.17;;;7.83;;
12962;SDS011;6546;49.882;8.666;2023-04-06T09:00:21;8.83;;;7.30;;
12962;SDS011;6546;49.882;8.666;2023-04-06T09:02:49;12.93;;;8.83;;
12962;SDS011;6546;49.882;8.666;2023-04-06T09:05:17;9.40;;;7.90;;
12962;SDS011;6546;49.882;8.666;2023-04-06T09:07:46;8.40;;;7.30;;
12962;SDS011;6546;49.882;8.666;2023-04-06T09:10:13;9.77;;;7.10;;
12962;SDS011;6546;49.882;8.666;2023-04-06T09:12:42;8.43;;;7.50;;
12962;SDS011;6546;49.882;8.666;2023-04-06T09:15:17;10.00;;;7.37;;
12962;SDS011;6546;49.882;8.666;2023-04-06T09:17:46;9.63;;;7.30;;
12962;SDS011;6546;49.882;8.666;2023-04-06T09:20:12;9.63;;;7.50;;
12962;SDS011;6546;49.882;8.666;2023-04-06T09:22:39;9.27;;;7.77;;
12962;SDS011;6546;49.882;8.666;2023-04-06T09:25:08;8.00;;;7.00;;
12962;SDS011;6546;49.882;8.666;2023-04-06T09:27:44;8.97;;;7.20;;
12962;SDS011;6546;49.882;8.666;2023-04-06T09:30:13;10.53;;;7.23;;
12962;SDS011;6546;49.882;8.666;2023-04-06T09:32:45;9.50;;;7.90;;
12962;SDS011;6546;49.882;8.666;2023-04-06T09:35:13;11.07;;;8.00;;
12962;SDS011;6546;49.882;8.666;2023-04-06T09:37:40;11.83;;;7.90;;
12962;SDS011;6546;49.882;8.666;2023-04-06T09:40:09;10.53;;;7.83;;
12962;SDS011;6546;49.882;8.666;2023-04-06T09:42:42;9.90;;;7.40;;
12962;SDS011;6546;49.882;8.666;2023-04-06T09:45:09;9.63;;;7.23;;
12962;SDS011;6546;49.882;8.666;2023-04-06T09:47:36;12.37;;;7.87;;
12962;SDS011;6546;49.882;8.666;2023-04-06T09:50:05;10.93;;;7.87;;
12962;SDS011;6546;49.882;8.666;2023-04-06T09:52:37;9.83;;;7.50;;
12962;SDS011;6546;49.882;8.666;2023-04-06T09:55:09;11.70;;;8.07;;
12962;SDS011;6546;49.882;8.666;2023-04-06T09:57:37;11.20;;;7.73;;
12962;SDS011;6546;49.882;8.666;2023-04-06T10:00:11;12.87;;;9.10;;
12962;SDS011;6546;49.882;8.666;2023-04-06T10:02:45;12.67;;;7.60;;
12962;SDS011;6546;49.882;8.666;2023-04-06T10:05:20;12.17;;;8.07;;
12962;SDS011;6546;49.882;8.666;2023-04-06T10:07:55;12.60;;;8.77;;
12962;SDS011;6546;49.882;8.666;2023-04-06T10:10:27;12.93;;;8.37;;
12962;SDS011;6546;49.882;8.666;2023-04-06T10:12:54;11.80;;;8.13;;
12962;SDS011;6546;49.882;8.666;2023-04-06T10:15:22;12.13;;;8.83;;
12962;SDS011;6546;49.882;8.666;2023-04-06T10:17:49;11.50;;;8.17;;
12962;SDS011;6546;49.882;8.666;2023-04-06T10:20:18;11.80;;;8.13;;
12962;SDS011;6546;49.882;8.666;2023-04-06T10:22:51;16.23;;;9.27;;
12962;SDS011;6546;49.882;8.666;2023-04-06T10:25:30;10.53;;;8.13;;
12962;SDS011;6546;49.882;8.666;2023-04-06T10:28:01;12.67;;;8.63;;
12962;SDS011;6546;49.882;8.666;2023-04-06T10:30:31;10.67;;;8.07;;
12962;SDS011;6546;49.882;8.666;2023-04-06T10:32:59;8.57;;;7.67;;
12962;SDS011;6546;49.882;8.666;2023-04-06T10:35:36;10.53;;;8.30;;
12962;SDS011;6546;49.882;8.666;2023-04-06T10:38:03;10.67;;;8.10;;
12962;SDS011;6546;49.882;8.666;2023-04-06T10:40:35;9.80;;;7.73;;
12962;SDS011;6546;49.882;8.666;2023-04-06T10:43:09;12.57;;;8.00;;
12962;SDS011;6546;49.882;8.666;2023-04-06T10:45:38;9.93;;;7.87;;
12962;SDS011;6546;49.882;8.666;2023-04-06T10:48:14;10.50;;;7.87;;
12962;SDS011;6546;49.882;8.666;2023-04-06T10:50:42;9.93;;;8.17;;
12962;SDS011;6546;49.882;8.666;2023-04-06T10:53:11;10.70;;;8.60;;
12962;SDS011;6546;49.882;8.666;2023-04-06T10:55:39;9.70;;;7.70;;
12962;SDS011;6546;49.882;8.666;2023-04-06T10:58:07;10.40;;;8.17;;
12962;SDS011;6546;49.882;8.666;2023-04-06T11:00:34;12.27;;;8.87;;
12962;SDS011;6546;49.882;8.666;2023-04-06T11:03:01;10.63;;;8.90;;
12962;SDS011;6546;49.882;8.666;2023-04-06T11:05:28;10.93;;;8.33;;
12962;SDS011;6546;49.882;8.666;2023-04-06T11:07:55;12.13;;;9.40;;
12962;SDS011;6546;49.882;8.666;2023-04-06T11:10:22;12.33;;;8.50;;
12962;SDS011;6546;49.882;8.666;2023-04-06T11:12:53;10.27;;;8.10;;
12962;SDS011;6546;49.882;8.666;2023-04-06T11:15:20;11.70;;;9.40;;
12962;SDS011;6546;49.882;8.666;2023-04-06T11:17:47;10.80;;;8.90;;
12962;SDS011;6546;49.882;8.666;2023-04-06T11:20:14;10.53;;;8.67;;
12962;SDS011;6546;49.882;8.666;2023-04-06T11:22:49;10.90;;;8.53;;
12962;SDS011;6546;49.882;8.666;2023-04-06T11:25:17;11.73;;;8.53;;
12962;SDS011;6546;49.882;8.666;2023-04-06T11:27:44;9.40;;;8.10;;
12962;SDS011;6546;49.882;8.666;2023-04-06T11:30:14;9.80;;;8.40;;
12962;SDS011;6546;49.882;8.666;2023-04-06T11:32:41;9.77;;;8.23;;
12962;SDS011;6546;49.882;8.666;2023-04-06T11:35:10;9.93;;;7.77;;
12962;SDS011;6546;49.882;8.666;2023-04-06T11:37:38;12.17;;;7.70;;
12962;SDS011;6546;49.882;8.666;2023-04-06T11:40:08;10.10;;;8.23;;
12962;SDS011;6546;49.882;8.666;2023-04-06T11:42:35;12.30;;;9.17;;
12962;SDS011;6546;49.882;8.666;2023-04-06T11:45:02;12.00;;;8.57;;
12962;SDS011;6546;49.882;8.666;2023-04-06T11:47:32;9.57;;;8.47;;
12962;SDS011;6546;49.882;8.666;2023-04-06T11:50:05;10.93;;;8.93;;
12962;SDS011;6546;49.882;8.666;2023-04-06T11:52:33;12.30;;;8.47;;
12962;SDS011;6546;49.882;8.666;2023-04-06T11:55:09;9.70;;;8.40;;
12962;SDS011;6546;49.882;8.666;2023-04-06T11:57:38;10.87;;;8.30;;
12962;SDS011;6546;49.882;8.666;2023-04-06T12:00:05;9.63;;;8.57;;
12962;SDS011;6546;49.882;8.666;2023-04-06T12:02:34;11.07;;;7.73;;
12962;SDS011;6546;49.882;8.666;2023-04-06T12:05:05;9.20;;;8.17;;
12962;SDS011;6546;49.882;8.666;2023-04-06T12:07:33;9.73;;;8.47;;
12962;SDS011;6546;49.882;8.666;2023-04-06T12:10:01;12.87;;;10.33;;
12962;SDS011;6546;49.882;8.666;2023-04-06T12:12:28;11.83;;;10.13;;
12962;SDS011;6546;49.882;8.666;2023-04-06T12:14:56;10.97;;;7.67;;
12962;SDS011;6546;49.882;8.666;2023-04-06T12:17:23;9.43;;;7.83;;
12962;SDS011;6546;49.882;8.666;2023-04-06T12:19:51;9.10;;;8.00;;
12962;SDS011;6546;49.882;8.666;2023-04-06T12:22:18;10.03;;;7.70;;
12962;SDS011;6546;49.882;8.666;2023-04-06T12:24:45;10.57;;;7.97;;
12962;SDS011;6546;49.882;8.666;2023-04-06T12:27:11;8.47;;;7.40;;
12962;SDS011;6546;49.882;8.666;2023-04-06T12:29:38;10.73;;;8.00;;
12962;SDS011;6546;49.882;8.666;2023-04-06T12:32:05;11.30;;;8.27;;
12962;SDS011;6546;49.882;8.666;2023-04-06T12:34:32;10.13;;;8.23;;
12962;SDS011;6546;49.882;8.666;2023-04-06T12:37:00;9.57;;;7.13;;
12962;SDS011;6546;49.882;8.666;2023-04-06T12:39:27;9.30;;;7.77;;
12962;SDS011;6546;49.882;8.666;2023-04-06T12:41:53;8.80;;;6.80;;
12962;SDS011;6546;49.882;8.666;2023-04-06T12:44:21;9.03;;;7.50;;
12962;SDS011;6546;49.882;8.666;2023-04-06T12:46:47;8.90;;;7.43;;
12962;SDS011;6546;49.882;8.666;2023-04-06T12:49:15;10.67;;;7.13;;
12962;SDS011;6546;49.882;8.666;2023-04-06T12:51:43;9.17;;;7.17;;
12962;SDS011;6546;49.882;8.666;2023-04-06T12:54:12;7.03;;;6.20;;
12962;SDS011;6546;49.882;8.666;2023-04-06T12:56:39;9.20;;;6.80;;
12962;SDS011;6546;49.882;8.666;2023-04-06T12:59:06;9.20;;;6.67;;
12962;SDS011;6546;49.882;8.666;2023-04-06T13:01:32;9.87;;;7.70;;
12962;SDS011;6546;49.882;8.666;2023-04-06T13:03:59;9.40;;;7.03;;
12962;SDS011;6546;49.882;8.666;2023-04-06T13:06:26;10.70;;;7.53;;
12962;SDS011;6546;49.882;8.666;2023-04-06T13:08:53;10.00;;;6.23;;
12962;SDS011;6546;49.882;8.666;2023-04-06T13:11:22;8.93;;;7.07;;
12962;SDS011;6546;49.882;8.666;2023-04-06T13:13:49;7.30;;;6.37;;
12962;SDS011;6546;49.882;8.666;2023-04-06T13:16:15;6.90;;;6.00;;
12962;SDS011;6546;49.882;8.666;2023-04-06T13:18:42;12.00;;;7.40;;
12962;SDS011;6546;49.882;8.666;2023-04-06T13:21:09;7.87;;;6.27;;
12962;SDS011;6546;49.882;8.666;2023-04-06T13:23:40;6.97;;;6.13;;
12962;SDS011;6546;49.882;8.666;2023-04-06T13:26:07;10.13;;;6.80;;
12962;SDS011;6546;49.882;8.666;2023-04-06T13:28:36;8.83;;;6.80;;
12962;SDS011;6546;49.882;8.666;2023-04-06T13:31:04;7.73;;;6.90;;
12962;SDS011;6546;49.882;8.666;2023-04-06T13:33:30;8.03;;;6.73;;
12962;SDS011;6546;49.882;8.666;2023-04-06T13:35:58;7.90;;;7.10;;
12962;SDS011;6546;49.882;8.666;2023-04-06T13:38:25;8.40;;;6.77;;
12962;SDS011;6546;49.882;8.666;2023-04-06T13:40:52;9.83;;;6.83;;
12962;SDS011;6546;49.882;8.666;2023-04-06T13:43:19;8.67;;;6.73;;
12962;SDS011;6546;49.882;8.666;2023-04-06T13:45:49;7.90;;;7.10;;
12962;SDS011;6546;49.882;8.666;2023-04-06T13:48:17;7.50;;;6.57;;
12962;SDS011;6546;49.882;8.666;2023-04-06T13:50:43;7.83;;;6.60;;
12962;SDS011;6546;49.882;8.666;2023-04-06T13:53:10;8.33;;;6.63;;
12962;SDS011;6546;49.882;8.666;2023-04-06T13:55:37;8.40;;;6.57;;
12962;SDS011;6546;49.882;8.666;2023-04-06T13:58:03;7.90;;;6.73;;
12962;SDS011;6546;49.882;8.666;2023-04-06T14:00:30;8.93;;;6.23;;
12962;SDS011;6546;49.882;8.666;2023-04-06T14:02:58;9.43;;;7.77;;
12962;SDS011;6546;49.882;8.666;2023-04-06T14:05:25;8.97;;;6.33;;
12962;SDS011;6546;49.882;8.666;2023-04-06T14:07:52;8.23;;;7.43;;
12962;SDS011;6546;49.882;8.666;2023-04-06T14:10:19;9.50;;;7.17;;
12962;SDS011;6546;49.882;8.666;2023-04-06T14:12:48;8.03;;;7.17;;
12962;SDS011;6546;49.882;8.666;2023-04-06T14:15:15;7.73;;;6.93;;
12962;SDS011;6546;49.882;8.666;2023-04-06T14:17:42;7.47;;;6.67;;
12962;SDS011;6546;49.882;8.666;2023-04-06T14:20:11;9.50;;;7.30;;
12962;SDS011;6546;49.882;8.666;2023-04-06T14:22:40;7.80;;;7.00;;
12962;SDS011;6546;49.882;8.666;2023-04-06T14:25:07;8.27;;;6.77;;
12962;SDS011;6546;49.882;8.666;2023-04-06T14:27:36;9.07;;;7.23;;
12962;SDS011;6546;49.882;8.666;2023-04-06T14:30:03;8.97;;;7.87;;
12962;SDS011;6546;49.882;8.666;2023-04-06T14:32:30;11.57;;;7.97;;
12962;SDS011;6546;49.882;8.666;2023-04-06T14:34:57;8.13;;;7.10;;
12962;SDS011;6546;49.882;8.666;2023-04-06T14:37:25;9.67;;;6.77;;
12962;SDS011;6546;49.882;8.666;2023-04-06T14:39:52;10.87;;;7.47;;
12962;SDS011;6546;49.882;8.666;2023-04-06T14:42:18;9.07;;;7.27;;
12962;SDS011;6546;49.882;8.666;2023-04-06T14:44:45;10.63;;;7.40;;
12962;SDS011;6546;49.882;8.666;2023-04-06T14:47:11;8.80;;;6.77;;
12962;SDS011;6546;49.882;8.666;2023-04-06T14:49:40;7.97;;;7.17;;
12962;SDS011;6546;49.882;8.666;2023-04-06T14:52:07;8.23;;;6.90;;
12962;SDS011;6546;49.882;8.666;2023-04-06T14:54:34;7.63;;;6.73;;